Airfield :
LOGIN :

Register | Disclaimer

   EN    FR    IT 

 










Legend :    VFR   Marginal VFR   IFR   Intensive IFR   Very Intensive IFR
Visi :
Ceiling :
>= 8 km
>= 3000ft
5 to 8 km
1000 to 3000 ft
1500m to 5 km
500 to 1000 ft
800 to 1500m
200 to 500 ft
< 800m
< 200 ft
Symbols :   Thunderstorms  Fog  Heavy snow  Heavy precipitations  Wind > 20 kt
SIGMETs :     Misc.  Thunderstorms  Icing  Turbulence  Mountain Waves  Volcanic Ashes






- Airport Elevation : 100 ft
- IATA code : DCI


LIED - Decimomannu Air Base

CURRENT METAR :
  • 200255Z 34003KT CAVOK 09/09 Q1014 RMK SKC VIS MIN 9999 WIND THR35 /////KT WIND THR17 31004KT BLU

EXPIRED METARs :
  • 200155Z 31005KT CAVOK 09/09 Q1014
  • 200055Z 27006KT CAVOK 10/09 Q1015 RMK SKC VIS MIN 9999 WIND THR35 /////KT WIND THR17 27004KT BLU
  • 192355Z 33003KT CAVOK 10/09 Q1016
  • 192255Z 01003KT CAVOK 10/08 Q1017 RMK SKC VIS MIN 9999 WIND THR35 /////KT WIND THR17 36002KT BLU

TAF TAF LIED
Valid from the 20 at 03:00 until the 20 at 12:00 UTC


200200Z 2003/2012 35006KT 9999 SCT025
BECMG 2010/2012 32020G30KT



MET'MAP, your aeronautical weather chart ! - Copyright ORBIFLY December 2007 - Disclaimer

ORBIFLY MET'MAP TEAM :

Programming & Development : Alexandra Zaïnal
Original concept : Baudouin d'Aumeries
Technical & hardware support : Manuel Goepfert
Assistance : Marc-Olivier Méhu




SOURCES & CREDITS :

   NOAA